Salinas Municipal Airport

About
Name: Salinas Municipal Airport
Identifier:  SNS/KSNS
Serves:  Salinas, California
Owner:  City of Salinas
Public/Private:  Public
Local Time:  22. Sep 02:48 PDT
Description: Salinas Municipal Airport is three miles southeast of Salinas, in Monterey County, California. It is included in the 2017-2021 National Plan of Integrated Airport Systems as a regional general aviation airport. It had 1,800 enplanements in 2014.
Source: Wikipedia
Location
Runways
Identifier Length (m/ft) Surface
8/26 6,004/6,004 Asphalt
13/31 4,825/4,825 Asphalt
Statistics
Flights per Day:
0 flights
Distance: 1,845km (1,146mi)
Flights delayed:
50% (0 flights per day delayed)
Delay Average: 43 minutes
Current Weather
 14 C (Humidity: 71%)
  3kt (5km/h / 3mph) from 70°
  16km (10 mi.)
 
 METAR KSNS 220853Z AUTO 07003KT 10SM CLR 14/09 A2991 RMK AO2 SLP136 T01390089 56003

Current Delays

Departures
N/A
Arrivals
N/A

Destinations

Top Destinations
Airport Flights
per week
Seats
per week
  Minden (MEV) 0 - 0 0

Airlines & Planes

Top Airlines
Airline Flights
per Day
Seats
per Day
Jetsuite Air 0 -
Top Plane Types
Model Flights Seats